Strona główna
METAR-TAF:

METAR-TAF

Lotnisko :

Platforma wiertnicza

K14-fa-1c, Holandia

Szerokość geograficzna: 53-16-10N, Długość geograficzna: 3-37-40E, wysokość: 28 m

Aktualna obserwacja pogody

Raport powstał 15 minut temu, godzina 14:25 UTC
Wiatr 14 kt od południe
Temperatura 18°C
Wilgotność 77%
Ciśnienie 1012 hPa
Widzialność 10 km lub więcej

METAR: EHKV 191425Z AUTO 19014KT 9999 NSC 18/14 Q1012 W///H///

czas: 16:40 (14:40 UTC)


TAF: brakujący

Obserwacja i prognoza pogody dla ponad 4000 lotnisk (raport METAR i TAF).

Dostępne stacje oznaczono żółtymi i czerwonymi punktami na mapie.

Najedź kursorem aby zobaczyć nazwę stacji.

Kliknij aby zobaczyć obserwacje i prognozy pogody.

Aby zmienić mapę: kliknij na zielony przycisk z czarnym krzyżykiem, aby powiększyć; na zielony przycisk z myślnikiem, aby pomniejszyć; na zielone strzałki, aby przejść do map sąsiednich.


METAR-TAF: